createdAt,value
2023-04-21T00:13:01.213Z,12.24
2023-04-21T00:28:03.822Z,12.40
2023-04-21T00:43:07.700Z,11.73
2023-04-21T00:58:10.431Z,11.32
2023-04-21T01:13:13.063Z,11.76
2023-04-21T01:28:16.011Z,11.78
2023-04-21T01:43:22.614Z,11.40
2023-04-21T01:58:25.326Z,11.41
2023-04-21T02:13:27.866Z,11.00
2023-04-21T02:28:31.759Z,11.20
2023-04-21T02:43:34.517Z,10.86
2023-04-21T02:58:37.615Z,10.97
2023-04-21T03:13:40.480Z,10.38
2023-04-21T03:28:43.075Z,10.20
2023-04-21T03:43:45.881Z,9.69
2023-04-21T03:58:49.597Z,9.13
2023-04-21T04:13:52.246Z,9.17
2023-04-21T04:28:56.513Z,10.19
2023-04-21T04:44:00.935Z,12.15
2023-04-21T04:59:03.989Z,13.69
2023-04-21T05:14:06.780Z,15.93
2023-04-21T05:29:09.519Z,18.68
2023-04-21T05:44:12.124Z,20.90
2023-04-21T05:59:14.839Z,22.42
2023-04-21T06:14:17.609Z,23.73
2023-04-21T06:29:21.055Z,25.20
2023-04-21T06:44:23.928Z,26.39
2023-04-21T06:59:26.563Z,27.31
2023-04-21T07:14:29.493Z,27.84
2023-04-21T07:29:32.119Z,28.66
2023-04-21T07:44:35.380Z,29.66
2023-04-21T07:59:38.275Z,30.87
2023-04-21T08:14:41.373Z,31.64
2023-04-21T08:29:43.981Z,32.11
2023-04-21T08:44:47.181Z,32.30
2023-04-21T08:59:49.858Z,32.20
2023-04-21T09:14:52.680Z,31.59
2023-04-21T09:29:55.603Z,30.59
2023-04-21T09:45:10.880Z,30.43
2023-04-21T10:00:22.643Z,30.30
2023-04-21T10:15:31.637Z,29.76
2023-04-21T10:30:34.375Z,28.72
2023-04-21T10:45:38.296Z,27.62
2023-04-21T11:00:41.356Z,25.92
2023-04-21T11:16:08.371Z,24.57
2023-04-21T11:31:11.511Z,24.16
2023-04-21T11:46:28.074Z,23.86
2023-04-21T12:01:30.765Z,22.84
2023-04-21T12:16:33.897Z,22.46
2023-04-21T12:31:36.591Z,22.21
2023-04-21T12:46:39.794Z,21.90
2023-04-21T13:01:44.134Z,21.77
2023-04-21T13:16:46.985Z,21.56
2023-04-21T13:31:49.850Z,21.21
2023-04-21T13:46:54.017Z,20.94
2023-04-21T14:01:56.938Z,20.71
2023-04-21T14:17:00.262Z,20.57
2023-04-21T14:32:03.250Z,20.62
2023-04-21T14:47:09.887Z,20.46
2023-04-21T15:02:14.298Z,20.11
2023-04-21T15:17:17.721Z,19.93
2023-04-21T15:32:20.935Z,19.87
2023-04-21T15:47:23.902Z,19.53
2023-04-21T16:02:26.733Z,19.07
2023-04-21T16:17:29.953Z,18.82
2023-04-21T16:32:35.331Z,18.67
2023-04-21T16:47:41.542Z,18.47
2023-04-21T17:02:45.114Z,18.14
2023-04-21T17:17:49.513Z,17.73
2023-04-21T17:33:04.140Z,17.28
2023-04-21T17:48:11.596Z,16.80
2023-04-21T18:03:14.531Z,16.23
2023-04-21T18:18:17.244Z,15.67
2023-04-21T18:33:20.216Z,15.22
2023-04-21T18:48:22.829Z,14.78
2023-04-21T19:03:26.095Z,14.40
2023-04-21T19:18:28.873Z,14.13
2023-04-21T19:33:31.715Z,13.80
2023-04-21T19:48:34.402Z,13.59
2023-04-21T20:03:37.371Z,13.35
2023-04-21T20:18:40.337Z,13.04
2023-04-21T20:33:43.090Z,12.72
2023-04-21T20:48:45.842Z,12.35
2023-04-21T21:03:48.876Z,11.94
2023-04-21T21:18:51.892Z,11.38
2023-04-21T21:33:55.235Z,10.92
2023-04-21T21:48:57.914Z,10.48
2023-04-21T22:04:00.758Z,9.71
2023-04-21T22:19:03.527Z,9.01
2023-04-21T22:34:06.171Z,8.70
2023-04-21T22:49:09.278Z,8.34
2023-04-21T23:04:12.179Z,8.31
2023-04-21T23:19:14.980Z,8.60
2023-04-21T23:34:17.581Z,8.38
2023-04-21T23:49:20.266Z,7.59
